sensor_id;sensor_type;location;lat;lon;timestamp;temperature;humidity
15288;DHT22;7745;48.708;9.026;2023-06-22T00:02:01;21.00;99.90
15288;DHT22;7745;48.708;9.026;2023-06-22T00:04:28;20.90;99.90
15288;DHT22;7745;48.708;9.026;2023-06-22T00:06:55;20.90;99.90
15288;DHT22;7745;48.708;9.026;2023-06-22T00:09:22;20.80;99.90
15288;DHT22;7745;48.708;9.026;2023-06-22T00:11:50;20.80;99.90
15288;DHT22;7745;48.708;9.026;2023-06-22T00:14:17;20.80;99.90
15288;DHT22;7745;48.708;9.026;2023-06-22T00:16:43;20.70;99.90
15288;DHT22;7745;48.708;9.026;2023-06-22T00:19:14;20.70;99.90
15288;DHT22;7745;48.708;9.026;2023-06-22T00:21:40;20.70;99.90
15288;DHT22;7745;48.708;9.026;2023-06-22T00:24:08;20.80;99.90
15288;DHT22;7745;48.708;9.026;2023-06-22T00:26:34;20.60;99.90
15288;DHT22;7745;48.708;9.026;2023-06-22T00:29:03;20.60;99.90
15288;DHT22;7745;48.708;9.026;2023-06-22T00:31:29;20.50;99.90
15288;DHT22;7745;48.708;9.026;2023-06-22T00:33:56;20.50;99.90
15288;DHT22;7745;48.708;9.026;2023-06-22T00:36:23;20.50;99.90
15288;DHT22;7745;48.708;9.026;2023-06-22T00:38:50;20.60;99.90
15288;DHT22;7745;48.708;9.026;2023-06-22T00:41:17;20.50;99.90
15288;DHT22;7745;48.708;9.026;2023-06-22T00:43:45;20.50;99.90
15288;DHT22;7745;48.708;9.026;2023-06-22T00:46:13;20.50;99.90
15288;DHT22;7745;48.708;9.026;2023-06-22T00:48:41;20.50;99.90
15288;DHT22;7745;48.708;9.026;2023-06-22T00:51:10;20.60;99.90
15288;DHT22;7745;48.708;9.026;2023-06-22T00:53:37;20.50;99.90
15288;DHT22;7745;48.708;9.026;2023-06-22T00:56:04;20.60;99.90
15288;DHT22;7745;48.708;9.026;2023-06-22T00:58:32;20.50;99.90
15288;DHT22;7745;48.708;9.026;2023-06-22T01:00:58;20.50;99.90
15288;DHT22;7745;48.708;9.026;2023-06-22T01:03:28;20.50;99.90
15288;DHT22;7745;48.708;9.026;2023-06-22T01:06:02;20.50;99.90
15288;DHT22;7745;48.708;9.026;2023-06-22T01:08:33;20.50;99.90
15288;DHT22;7745;48.708;9.026;2023-06-22T01:11:07;20.50;99.90
15288;DHT22;7745;48.708;9.026;2023-06-22T01:13:39;20.60;99.90
15288;DHT22;7745;48.708;9.026;2023-06-22T01:16:14;20.50;99.90
15288;DHT22;7745;48.708;9.026;2023-06-22T01:18:44;20.50;99.90
15288;DHT22;7745;48.708;9.026;2023-06-22T01:21:16;20.40;99.90
15288;DHT22;7745;48.708;9.026;2023-06-22T01:23:53;20.40;99.90
15288;DHT22;7745;48.708;9.026;2023-06-22T01:26:32;20.40;99.90
15288;DHT22;7745;48.708;9.026;2023-06-22T01:29:04;20.30;99.90
15288;DHT22;7745;48.708;9.026;2023-06-22T01:31:33;20.40;99.90
15288;DHT22;7745;48.708;9.026;2023-06-22T01:34:03;20.30;99.90
15288;DHT22;7745;48.708;9.026;2023-06-22T01:36:31;20.20;99.90
15288;DHT22;7745;48.708;9.026;2023-06-22T01:38:59;20.20;99.90
15288;DHT22;7745;48.708;9.026;2023-06-22T01:41:28;20.10;99.90
15288;DHT22;7745;48.708;9.026;2023-06-22T01:43:56;20.20;99.90
15288;DHT22;7745;48.708;9.026;2023-06-22T01:46:24;20.10;99.90
15288;DHT22;7745;48.708;9.026;2023-06-22T01:48:51;20.00;99.90
15288;DHT22;7745;48.708;9.026;2023-06-22T01:51:19;19.90;99.90
15288;DHT22;7745;48.708;9.026;2023-06-22T01:53:46;19.90;99.90
15288;DHT22;7745;48.708;9.026;2023-06-22T01:56:14;19.80;99.90
15288;DHT22;7745;48.708;9.026;2023-06-22T01:58:49;19.80;99.90
15288;DHT22;7745;48.708;9.026;2023-06-22T02:01:22;19.70;99.90
15288;DHT22;7745;48.708;9.026;2023-06-22T02:03:56;19.80;99.90
15288;DHT22;7745;48.708;9.026;2023-06-22T02:06:29;19.70;99.90
15288;DHT22;7745;48.708;9.026;2023-06-22T02:09:02;19.60;99.90
15288;DHT22;7745;48.708;9.026;2023-06-22T02:11:33;19.60;99.90
15288;DHT22;7745;48.708;9.026;2023-06-22T02:14:00;19.60;99.90
15288;DHT22;7745;48.708;9.026;2023-06-22T02:16:27;19.60;99.90
15288;DHT22;7745;48.708;9.026;2023-06-22T02:18:56;19.50;99.90
15288;DHT22;7745;48.708;9.026;2023-06-22T02:21:29;19.60;99.90
15288;DHT22;7745;48.708;9.026;2023-06-22T02:23:55;19.60;99.90
15288;DHT22;7745;48.708;9.026;2023-06-22T02:26:23;19.60;99.90
15288;DHT22;7745;48.708;9.026;2023-06-22T02:28:51;19.60;99.90
15288;DHT22;7745;48.708;9.026;2023-06-22T02:31:18;19.70;99.90
15288;DHT22;7745;48.708;9.026;2023-06-22T02:33:45;19.60;99.90
15288;DHT22;7745;48.708;9.026;2023-06-22T02:36:15;19.60;99.90
15288;DHT22;7745;48.708;9.026;2023-06-22T02:38:42;19.60;99.90
15288;DHT22;7745;48.708;9.026;2023-06-22T02:41:13;19.60;99.90
15288;DHT22;7745;48.708;9.026;2023-06-22T02:43:44;19.50;99.90
15288;DHT22;7745;48.708;9.026;2023-06-22T02:46:11;19.60;99.90
15288;DHT22;7745;48.708;9.026;2023-06-22T02:48:38;19.60;99.90
15288;DHT22;7745;48.708;9.026;2023-06-22T02:51:05;19.50;99.90
15288;DHT22;7745;48.708;9.026;2023-06-22T02:53:33;19.40;99.90
15288;DHT22;7745;48.708;9.026;2023-06-22T02:56:01;19.50;99.90
15288;DHT22;7745;48.708;9.026;2023-06-22T02:58:28;19.40;99.90
15288;DHT22;7745;48.708;9.026;2023-06-22T03:00:55;19.30;99.90
15288;DHT22;7745;48.708;9.026;2023-06-22T03:03:22;19.40;99.90
15288;DHT22;7745;48.708;9.026;2023-06-22T03:05:51;19.50;99.90
15288;DHT22;7745;48.708;9.026;2023-06-22T03:08:18;19.40;99.90
15288;DHT22;7745;48.708;9.026;2023-06-22T03:10:46;19.50;99.90
15288;DHT22;7745;48.708;9.026;2023-06-22T03:13:13;19.60;99.90
15288;DHT22;7745;48.708;9.026;2023-06-22T03:15:40;19.50;99.90
15288;DHT22;7745;48.708;9.026;2023-06-22T03:18:07;19.60;99.90
15288;DHT22;7745;48.708;9.026;2023-06-22T03:20:34;19.50;99.90
15288;DHT22;7745;48.708;9.026;2023-06-22T03:23:01;19.50;99.90
15288;DHT22;7745;48.708;9.026;2023-06-22T03:25:28;19.50;99.90
15288;DHT22;7745;48.708;9.026;2023-06-22T03:27:56;19.50;99.90
15288;DHT22;7745;48.708;9.026;2023-06-22T03:30:22;19.50;99.90
15288;DHT22;7745;48.708;9.026;2023-06-22T03:32:49;19.70;99.90
15288;DHT22;7745;48.708;9.026;2023-06-22T03:35:16;19.50;99.90
15288;DHT22;7745;48.708;9.026;2023-06-22T03:37:43;19.60;99.90
15288;DHT22;7745;48.708;9.026;2023-06-22T03:40:11;19.40;99.90
15288;DHT22;7745;48.708;9.026;2023-06-22T03:42:37;19.30;99.90
15288;DHT22;7745;48.708;9.026;2023-06-22T03:45:07;19.20;99.90
15288;DHT22;7745;48.708;9.026;2023-06-22T03:47:34;19.30;99.90
15288;DHT22;7745;48.708;9.026;2023-06-22T03:50:01;19.20;99.90
15288;DHT22;7745;48.708;9.026;2023-06-22T03:52:29;19.20;99.90
15288;DHT22;7745;48.708;9.026;2023-06-22T03:54:55;19.20;99.90
15288;DHT22;7745;48.708;9.026;2023-06-22T03:57:22;19.20;99.90
15288;DHT22;7745;48.708;9.026;2023-06-22T03:59:49;19.40;99.90
15288;DHT22;7745;48.708;9.026;2023-06-22T04:02:17;19.30;99.90
15288;DHT22;7745;48.708;9.026;2023-06-22T04:04:44;19.30;99.90
15288;DHT22;7745;48.708;9.026;2023-06-22T04:07:11;19.20;99.90
15288;DHT22;7745;48.708;9.026;2023-06-22T04:09:38;19.40;99.90
15288;DHT22;7745;48.708;9.026;2023-06-22T04:12:05;19.30;99.90
15288;DHT22;7745;48.708;9.026;2023-06-22T04:14:32;19.30;99.90
15288;DHT22;7745;48.708;9.026;2023-06-22T04:16:59;19.30;99.90
15288;DHT22;7745;48.708;9.026;2023-06-22T04:19:27;19.30;99.90
15288;DHT22;7745;48.708;9.026;2023-06-22T04:21:54;19.40;99.90
15288;DHT22;7745;48.708;9.026;2023-06-22T04:24:21;19.40;99.90
15288;DHT22;7745;48.708;9.026;2023-06-22T04:26:47;19.40;99.90
15288;DHT22;7745;48.708;9.026;2023-06-22T04:29:19;19.40;99.90
15288;DHT22;7745;48.708;9.026;2023-06-22T04:31:45;19.40;99.90
15288;DHT22;7745;48.708;9.026;2023-06-22T04:34:16;19.50;99.90
15288;DHT22;7745;48.708;9.026;2023-06-22T04:36:44;19.40;99.90
15288;DHT22;7745;48.708;9.026;2023-06-22T04:39:11;19.60;99.90
15288;DHT22;7745;48.708;9.026;2023-06-22T04:41:39;19.50;99.90
15288;DHT22;7745;48.708;9.026;2023-06-22T04:44:09;19.60;99.90
15288;DHT22;7745;48.708;9.026;2023-06-22T04:46:37;19.80;99.90
15288;DHT22;7745;48.708;9.026;2023-06-22T04:49:05;19.90;99.90
15288;DHT22;7745;48.708;9.026;2023-06-22T04:51:36;20.00;99.90
15288;DHT22;7745;48.708;9.026;2023-06-22T04:54:05;20.20;99.90
15288;DHT22;7745;48.708;9.026;2023-06-22T04:56:32;20.30;99.90
15288;DHT22;7745;48.708;9.026;2023-06-22T04:58:59;20.40;99.90
15288;DHT22;7745;48.708;9.026;2023-06-22T05:01:26;20.50;99.90
15288;DHT22;7745;48.708;9.026;2023-06-22T05:03:53;20.60;99.90
15288;DHT22;7745;48.708;9.026;2023-06-22T05:06:22;20.70;99.90
15288;DHT22;7745;48.708;9.026;2023-06-22T05:08:51;20.90;99.90
15288;DHT22;7745;48.708;9.026;2023-06-22T05:11:19;20.90;99.90
15288;DHT22;7745;48.708;9.026;2023-06-22T05:13:45;21.00;99.90
15288;DHT22;7745;48.708;9.026;2023-06-22T05:16:12;21.20;99.90
15288;DHT22;7745;48.708;9.026;2023-06-22T05:18:39;21.30;99.90
15288;DHT22;7745;48.708;9.026;2023-06-22T05:21:07;21.40;99.90
15288;DHT22;7745;48.708;9.026;2023-06-22T05:23:34;21.40;99.90
15288;DHT22;7745;48.708;9.026;2023-06-22T05:26:00;21.50;99.90
15288;DHT22;7745;48.708;9.026;2023-06-22T05:28:29;21.60;99.90
15288;DHT22;7745;48.708;9.026;2023-06-22T05:30:55;21.70;99.90
15288;DHT22;7745;48.708;9.026;2023-06-22T05:33:22;21.80;99.90
15288;DHT22;7745;48.708;9.026;2023-06-22T05:35:49;22.00;99.90
15288;DHT22;7745;48.708;9.026;2023-06-22T05:38:16;22.00;99.90
15288;DHT22;7745;48.708;9.026;2023-06-22T05:40:43;22.10;99.90
15288;DHT22;7745;48.708;9.026;2023-06-22T05:43:09;22.10;99.90
15288;DHT22;7745;48.708;9.026;2023-06-22T05:45:37;22.10;99.90
15288;DHT22;7745;48.708;9.026;2023-06-22T05:48:05;22.10;99.90
15288;DHT22;7745;48.708;9.026;2023-06-22T05:50:32;22.20;99.90
15288;DHT22;7745;48.708;9.026;2023-06-22T05:52:59;22.30;99.90
15288;DHT22;7745;48.708;9.026;2023-06-22T05:55:25;22.10;99.90
15288;DHT22;7745;48.708;9.026;2023-06-22T05:57:52;22.10;99.90
15288;DHT22;7745;48.708;9.026;2023-06-22T06:00:20;22.10;99.90
15288;DHT22;7745;48.708;9.026;2023-06-22T06:02:50;22.00;99.90
15288;DHT22;7745;48.708;9.026;2023-06-22T06:05:17;22.00;99.90
15288;DHT22;7745;48.708;9.026;2023-06-22T06:07:45;22.10;99.90
15288;DHT22;7745;48.708;9.026;2023-06-22T06:10:12;22.00;99.90
15288;DHT22;7745;48.708;9.026;2023-06-22T06:12:38;22.30;99.90
15288;DHT22;7745;48.708;9.026;2023-06-22T06:15:06;22.40;99.90
15288;DHT22;7745;48.708;9.026;2023-06-22T06:17:33;22.50;99.90
15288;DHT22;7745;48.708;9.026;2023-06-22T06:20:01;22.60;99.90
15288;DHT22;7745;48.708;9.026;2023-06-22T06:22:30;22.80;99.90
15288;DHT22;7745;48.708;9.026;2023-06-22T06:24:57;22.90;99.90
15288;DHT22;7745;48.708;9.026;2023-06-22T06:27:23;23.00;99.90
15288;DHT22;7745;48.708;9.026;2023-06-22T06:29:54;23.20;99.90
15288;DHT22;7745;48.708;9.026;2023-06-22T06:32:21;23.20;99.90
15288;DHT22;7745;48.708;9.026;2023-06-22T06:34:48;23.30;99.90
15288;DHT22;7745;48.708;9.026;2023-06-22T06:37:16;23.40;99.90
15288;DHT22;7745;48.708;9.026;2023-06-22T06:39:43;23.50;99.90
15288;DHT22;7745;48.708;9.026;2023-06-22T06:42:10;23.60;99.90
15288;DHT22;7745;48.708;9.026;2023-06-22T06:44:37;23.70;99.90
15288;DHT22;7745;48.708;9.026;2023-06-22T06:47:04;23.70;99.90
15288;DHT22;7745;48.708;9.026;2023-06-22T06:49:31;23.80;99.90
15288;DHT22;7745;48.708;9.026;2023-06-22T06:51:58;24.00;99.90
15288;DHT22;7745;48.708;9.026;2023-06-22T06:54:26;24.00;99.90
15288;DHT22;7745;48.708;9.026;2023-06-22T06:56:53;24.10;99.90
15288;DHT22;7745;48.708;9.026;2023-06-22T06:59:19;24.20;99.90
15288;DHT22;7745;48.708;9.026;2023-06-22T07:01:46;24.30;99.90
15288;DHT22;7745;48.708;9.026;2023-06-22T07:04:14;24.30;99.90
15288;DHT22;7745;48.708;9.026;2023-06-22T07:06:40;24.30;99.90
15288;DHT22;7745;48.708;9.026;2023-06-22T07:09:08;24.40;99.90
15288;DHT22;7745;48.708;9.026;2023-06-22T07:11:36;24.50;99.90
15288;DHT22;7745;48.708;9.026;2023-06-22T07:14:03;24.60;99.90
15288;DHT22;7745;48.708;9.026;2023-06-22T07:16:30;24.70;99.90
15288;DHT22;7745;48.708;9.026;2023-06-22T07:18:57;24.80;99.90
15288;DHT22;7745;48.708;9.026;2023-06-22T07:21:23;24.80;99.90
15288;DHT22;7745;48.708;9.026;2023-06-22T07:23:50;24.90;99.90
15288;DHT22;7745;48.708;9.026;2023-06-22T07:26:17;24.80;99.90
15288;DHT22;7745;48.708;9.026;2023-06-22T07:28:45;25.00;99.90
15288;DHT22;7745;48.708;9.026;2023-06-22T07:31:12;25.10;99.90
15288;DHT22;7745;48.708;9.026;2023-06-22T07:33:39;25.20;99.90
15288;DHT22;7745;48.708;9.026;2023-06-22T07:36:06;25.20;99.90
15288;DHT22;7745;48.708;9.026;2023-06-22T07:38:33;25.30;99.90
15288;DHT22;7745;48.708;9.026;2023-06-22T07:41:01;25.40;99.90
15288;DHT22;7745;48.708;9.026;2023-06-22T07:43:31;25.40;99.90
15288;DHT22;7745;48.708;9.026;2023-06-22T07:46:00;25.50;99.90
15288;DHT22;7745;48.708;9.026;2023-06-22T07:48:26;25.40;99.90
15288;DHT22;7745;48.708;9.026;2023-06-22T07:50:53;25.50;99.90
15288;DHT22;7745;48.708;9.026;2023-06-22T07:53:21;25.50;99.90
15288;DHT22;7745;48.708;9.026;2023-06-22T07:55:48;25.60;99.90
15288;DHT22;7745;48.708;9.026;2023-06-22T07:58:15;25.80;99.90
15288;DHT22;7745;48.708;9.026;2023-06-22T08:00:44;25.80;99.90
15288;DHT22;7745;48.708;9.026;2023-06-22T08:03:12;25.90;99.90
15288;DHT22;7745;48.708;9.026;2023-06-22T08:05:39;25.90;99.90
15288;DHT22;7745;48.708;9.026;2023-06-22T08:08:06;26.00;99.90
15288;DHT22;7745;48.708;9.026;2023-06-22T08:10:33;26.10;99.90
15288;DHT22;7745;48.708;9.026;2023-06-22T08:12:59;26.20;99.90
15288;DHT22;7745;48.708;9.026;2023-06-22T08:15:26;26.30;99.90
15288;DHT22;7745;48.708;9.026;2023-06-22T08:17:53;26.30;99.90
15288;DHT22;7745;48.708;9.026;2023-06-22T08:20:22;26.30;99.90
15288;DHT22;7745;48.708;9.026;2023-06-22T08:22:48;26.30;99.90
15288;DHT22;7745;48.708;9.026;2023-06-22T08:25:15;26.40;99.90
15288;DHT22;7745;48.708;9.026;2023-06-22T08:27:45;26.60;99.90
15288;DHT22;7745;48.708;9.026;2023-06-22T08:30:13;26.80;99.90
15288;DHT22;7745;48.708;9.026;2023-06-22T08:32:40;26.90;99.90
15288;DHT22;7745;48.708;9.026;2023-06-22T08:35:07;27.00;99.90
15288;DHT22;7745;48.708;9.026;2023-06-22T08:37:36;27.00;99.90
15288;DHT22;7745;48.708;9.026;2023-06-22T08:40:06;26.90;99.90
15288;DHT22;7745;48.708;9.026;2023-06-22T08:42:34;26.90;99.90
15288;DHT22;7745;48.708;9.026;2023-06-22T08:45:01;27.10;99.90
15288;DHT22;7745;48.708;9.026;2023-06-22T08:47:28;27.40;99.90
15288;DHT22;7745;48.708;9.026;2023-06-22T08:49:55;27.50;99.90
15288;DHT22;7745;48.708;9.026;2023-06-22T08:52:22;27.50;99.90
15288;DHT22;7745;48.708;9.026;2023-06-22T08:54:50;27.40;99.90
15288;DHT22;7745;48.708;9.026;2023-06-22T08:57:17;27.50;99.90
15288;DHT22;7745;48.708;9.026;2023-06-22T08:59:44;27.70;99.90
15288;DHT22;7745;48.708;9.026;2023-06-22T09:02:11;27.90;99.90
15288;DHT22;7745;48.708;9.026;2023-06-22T09:04:37;27.90;99.90
15288;DHT22;7745;48.708;9.026;2023-06-22T09:07:05;27.90;99.90
15288;DHT22;7745;48.708;9.026;2023-06-22T09:09:32;27.90;99.90
15288;DHT22;7745;48.708;9.026;2023-06-22T09:12:00;27.90;99.90
15288;DHT22;7745;48.708;9.026;2023-06-22T09:14:27;28.20;99.90
15288;DHT22;7745;48.708;9.026;2023-06-22T09:16:53;28.30;99.90
15288;DHT22;7745;48.708;9.026;2023-06-22T09:19:20;28.40;99.90
15288;DHT22;7745;48.708;9.026;2023-06-22T09:21:47;28.50;99.90
15288;DHT22;7745;48.708;9.026;2023-06-22T09:24:14;28.80;99.90
15288;DHT22;7745;48.708;9.026;2023-06-22T09:26:41;28.80;99.90
15288;DHT22;7745;48.708;9.026;2023-06-22T09:29:09;28.80;99.90
15288;DHT22;7745;48.708;9.026;2023-06-22T09:31:36;28.70;99.90
15288;DHT22;7745;48.708;9.026;2023-06-22T09:34:02;28.70;99.90
15288;DHT22;7745;48.708;9.026;2023-06-22T09:36:30;28.70;99.90
15288;DHT22;7745;48.708;9.026;2023-06-22T09:38:56;28.70;99.90
15288;DHT22;7745;48.708;9.026;2023-06-22T09:41:24;28.70;99.90
15288;DHT22;7745;48.708;9.026;2023-06-22T09:43:52;28.60;99.90
15288;DHT22;7745;48.708;9.026;2023-06-22T09:46:21;28.70;99.90
15288;DHT22;7745;48.708;9.026;2023-06-22T09:48:50;28.80;99.90
15288;DHT22;7745;48.708;9.026;2023-06-22T09:51:17;28.90;99.90
15288;DHT22;7745;48.708;9.026;2023-06-22T09:53:44;28.80;99.90
15288;DHT22;7745;48.708;9.026;2023-06-22T09:56:11;28.90;99.90
15288;DHT22;7745;48.708;9.026;2023-06-22T09:58:40;29.00;99.90
15288;DHT22;7745;48.708;9.026;2023-06-22T10:01:07;29.20;99.90
15288;DHT22;7745;48.708;9.026;2023-06-22T10:03:35;29.40;99.90
15288;DHT22;7745;48.708;9.026;2023-06-22T10:06:02;29.60;99.90
15288;DHT22;7745;48.708;9.026;2023-06-22T10:08:29;29.50;99.90
15288;DHT22;7745;48.708;9.026;2023-06-22T10:10:56;29.40;99.90
15288;DHT22;7745;48.708;9.026;2023-06-22T10:13:23;29.50;99.90
15288;DHT22;7745;48.708;9.026;2023-06-22T10:15:50;29.60;99.90
15288;DHT22;7745;48.708;9.026;2023-06-22T10:18:16;29.80;99.90
15288;DHT22;7745;48.708;9.026;2023-06-22T10:20:47;29.90;99.90
15288;DHT22;7745;48.708;9.026;2023-06-22T10:23:14;30.00;99.90
15288;DHT22;7745;48.708;9.026;2023-06-22T10:25:41;30.00;99.90
15288;DHT22;7745;48.708;9.026;2023-06-22T10:28:07;30.20;99.90
15288;DHT22;7745;48.708;9.026;2023-06-22T10:30:34;30.30;99.90
15288;DHT22;7745;48.708;9.026;2023-06-22T10:33:01;30.20;99.90
15288;DHT22;7745;48.708;9.026;2023-06-22T10:35:28;30.20;99.90
15288;DHT22;7745;48.708;9.026;2023-06-22T10:37:56;30.40;99.90
15288;DHT22;7745;48.708;9.026;2023-06-22T10:40:23;30.30;99.90
15288;DHT22;7745;48.708;9.026;2023-06-22T10:42:49;30.40;99.90
15288;DHT22;7745;48.708;9.026;2023-06-22T10:45:16;30.50;99.90
15288;DHT22;7745;48.708;9.026;2023-06-22T10:47:43;30.70;99.90
15288;DHT22;7745;48.708;9.026;2023-06-22T10:50:10;30.60;99.90
15288;DHT22;7745;48.708;9.026;2023-06-22T10:52:37;30.80;99.90
15288;DHT22;7745;48.708;9.026;2023-06-22T10:55:06;30.90;99.90
15288;DHT22;7745;48.708;9.026;2023-06-22T10:57:33;31.00;99.90
15288;DHT22;7745;48.708;9.026;2023-06-22T11:00:00;30.90;99.90
15288;DHT22;7745;48.708;9.026;2023-06-22T11:02:27;30.80;99.90
15288;DHT22;7745;48.708;9.026;2023-06-22T11:04:53;30.60;99.90
15288;DHT22;7745;48.708;9.026;2023-06-22T11:07:20;30.50;99.90
15288;DHT22;7745;48.708;9.026;2023-06-22T11:09:47;30.60;99.90
15288;DHT22;7745;48.708;9.026;2023-06-22T11:12:15;30.70;99.90
15288;DHT22;7745;48.708;9.026;2023-06-22T11:14:42;30.70;99.90
15288;DHT22;7745;48.708;9.026;2023-06-22T11:17:08;30.60;99.90
15288;DHT22;7745;48.708;9.026;2023-06-22T11:19:35;30.70;99.90
15288;DHT22;7745;48.708;9.026;2023-06-22T11:22:03;30.80;99.90
15288;DHT22;7745;48.708;9.026;2023-06-22T11:24:30;30.60;99.90
15288;DHT22;7745;48.708;9.026;2023-06-22T11:26:56;30.50;99.90
15288;DHT22;7745;48.708;9.026;2023-06-22T11:29:25;30.30;99.90
15288;DHT22;7745;48.708;9.026;2023-06-22T11:31:51;30.30;99.90
15288;DHT22;7745;48.708;9.026;2023-06-22T11:34:18;30.40;99.90
15288;DHT22;7745;48.708;9.026;2023-06-22T11:36:45;30.40;99.90
15288;DHT22;7745;48.708;9.026;2023-06-22T11:39:13;30.60;99.90
15288;DHT22;7745;48.708;9.026;2023-06-22T11:41:40;30.70;99.90
15288;DHT22;7745;48.708;9.026;2023-06-22T11:44:07;30.70;99.90
15288;DHT22;7745;48.708;9.026;2023-06-22T11:46:35;30.60;99.90
15288;DHT22;7745;48.708;9.026;2023-06-22T11:49:03;30.50;99.90
15288;DHT22;7745;48.708;9.026;2023-06-22T11:51:30;30.30;99.90
15288;DHT22;7745;48.708;9.026;2023-06-22T11:53:57;30.10;99.90
15288;DHT22;7745;48.708;9.026;2023-06-22T11:56:24;30.10;99.90
15288;DHT22;7745;48.708;9.026;2023-06-22T11:58:50;30.10;99.90
15288;DHT22;7745;48.708;9.026;2023-06-22T12:01:17;30.10;99.90
15288;DHT22;7745;48.708;9.026;2023-06-22T12:03:45;30.10;99.90
15288;DHT22;7745;48.708;9.026;2023-06-22T12:06:12;30.20;99.90
15288;DHT22;7745;48.708;9.026;2023-06-22T12:08:39;30.30;99.90
15288;DHT22;7745;48.708;9.026;2023-06-22T12:11:06;30.30;99.90
15288;DHT22;7745;48.708;9.026;2023-06-22T12:13:32;30.30;99.90
15288;DHT22;7745;48.708;9.026;2023-06-22T12:15:59;30.40;99.90
15288;DHT22;7745;48.708;9.026;2023-06-22T12:18:26;30.50;99.90
15288;DHT22;7745;48.708;9.026;2023-06-22T12:20:54;30.60;99.90
15288;DHT22;7745;48.708;9.026;2023-06-22T12:23:21;30.60;99.90
15288;DHT22;7745;48.708;9.026;2023-06-22T12:25:47;30.50;99.90
15288;DHT22;7745;48.708;9.026;2023-06-22T12:28:14;30.50;99.90
15288;DHT22;7745;48.708;9.026;2023-06-22T12:30:41;30.50;99.90
15288;DHT22;7745;48.708;9.026;2023-06-22T12:33:08;30.50;99.90
15288;DHT22;7745;48.708;9.026;2023-06-22T12:35:35;30.50;99.90
15288;DHT22;7745;48.708;9.026;2023-06-22T12:38:03;30.40;99.90
15288;DHT22;7745;48.708;9.026;2023-06-22T12:40:31;30.40;99.90
15288;DHT22;7745;48.708;9.026;2023-06-22T12:42:58;30.50;99.90
15288;DHT22;7745;48.708;9.026;2023-06-22T12:45:25;30.60;99.90
15288;DHT22;7745;48.708;9.026;2023-06-22T12:47:54;30.70;99.90
15288;DHT22;7745;48.708;9.026;2023-06-22T12:50:21;30.70;99.90
15288;DHT22;7745;48.708;9.026;2023-06-22T12:52:47;30.50;99.90
15288;DHT22;7745;48.708;9.026;2023-06-22T12:55:16;30.30;99.90
15288;DHT22;7745;48.708;9.026;2023-06-22T12:57:42;30.00;99.90
15288;DHT22;7745;48.708;9.026;2023-06-22T13:00:10;29.90;99.90
15288;DHT22;7745;48.708;9.026;2023-06-22T13:02:37;29.70;99.90
15288;DHT22;7745;48.708;9.026;2023-06-22T13:05:04;29.60;99.90
15288;DHT22;7745;48.708;9.026;2023-06-22T13:07:31;29.40;99.90
15288;DHT22;7745;48.708;9.026;2023-06-22T13:09:58;29.30;99.90
15288;DHT22;7745;48.708;9.026;2023-06-22T13:12:26;29.30;99.90
15288;DHT22;7745;48.708;9.026;2023-06-22T13:14:53;29.40;99.90
15288;DHT22;7745;48.708;9.026;2023-06-22T13:17:20;29.30;99.90
15288;DHT22;7745;48.708;9.026;2023-06-22T13:19:47;29.40;99.90
15288;DHT22;7745;48.708;9.026;2023-06-22T13:22:35;29.40;99.90
15288;DHT22;7745;48.708;9.026;2023-06-22T13:25:06;29.60;99.90
15288;DHT22;7745;48.708;9.026;2023-06-22T13:27:37;29.80;99.90
15288;DHT22;7745;48.708;9.026;2023-06-22T13:30:04;30.00;99.90
15288;DHT22;7745;48.708;9.026;2023-06-22T13:32:31;30.10;99.90
15288;DHT22;7745;48.708;9.026;2023-06-22T13:34:58;30.20;99.90
15288;DHT22;7745;48.708;9.026;2023-06-22T13:37:26;30.30;99.90
15288;DHT22;7745;48.708;9.026;2023-06-22T13:39:52;30.30;99.90
15288;DHT22;7745;48.708;9.026;2023-06-22T13:42:21;30.50;99.90
15288;DHT22;7745;48.708;9.026;2023-06-22T13:44:49;30.60;99.90
15288;DHT22;7745;48.708;9.026;2023-06-22T13:47:16;30.70;99.90
15288;DHT22;7745;48.708;9.026;2023-06-22T13:49:43;30.70;99.90
15288;DHT22;7745;48.708;9.026;2023-06-22T13:52:09;30.70;99.90
15288;DHT22;7745;48.708;9.026;2023-06-22T13:54:38;30.70;99.90
15288;DHT22;7745;48.708;9.026;2023-06-22T13:57:05;30.70;99.90
15288;DHT22;7745;48.708;9.026;2023-06-22T13:59:32;30.70;99.90
15288;DHT22;7745;48.708;9.026;2023-06-22T14:02:00;30.70;99.90
15288;DHT22;7745;48.708;9.026;2023-06-22T14:04:27;30.80;99.90
15288;DHT22;7745;48.708;9.026;2023-06-22T14:06:54;30.80;99.90
15288;DHT22;7745;48.708;9.026;2023-06-22T14:09:21;30.90;99.90
15288;DHT22;7745;48.708;9.026;2023-06-22T14:11:48;31.10;99.90
15288;DHT22;7745;48.708;9.026;2023-06-22T14:14:15;31.30;99.90
15288;DHT22;7745;48.708;9.026;2023-06-22T14:16:42;31.60;99.90
15288;DHT22;7745;48.708;9.026;2023-06-22T14:19:10;31.80;99.90
15288;DHT22;7745;48.708;9.026;2023-06-22T14:21:37;31.90;99.90
15288;DHT22;7745;48.708;9.026;2023-06-22T14:24:04;31.90;99.90
15288;DHT22;7745;48.708;9.026;2023-06-22T14:26:30;31.90;99.90
15288;DHT22;7745;48.708;9.026;2023-06-22T14:28:57;32.00;99.90
15288;DHT22;7745;48.708;9.026;2023-06-22T14:31:24;32.00;99.90
15288;DHT22;7745;48.708;9.026;2023-06-22T14:33:51;32.10;99.90
15288;DHT22;7745;48.708;9.026;2023-06-22T14:36:19;32.00;99.90
15288;DHT22;7745;48.708;9.026;2023-06-22T14:38:46;32.10;99.90
15288;DHT22;7745;48.708;9.026;2023-06-22T14:41:12;32.20;99.90
15288;DHT22;7745;48.708;9.026;2023-06-22T14:43:44;32.20;99.90
15288;DHT22;7745;48.708;9.026;2023-06-22T14:46:12;32.20;99.90
15288;DHT22;7745;48.708;9.026;2023-06-22T14:48:39;32.20;99.90
15288;DHT22;7745;48.708;9.026;2023-06-22T14:51:05;32.20;99.90
15288;DHT22;7745;48.708;9.026;2023-06-22T14:53:34;32.30;99.90
15288;DHT22;7745;48.708;9.026;2023-06-22T14:56:00;32.20;99.90
15288;DHT22;7745;48.708;9.026;2023-06-22T14:58:27;32.10;99.90
15288;DHT22;7745;48.708;9.026;2023-06-22T15:00:55;31.80;99.90
15288;DHT22;7745;48.708;9.026;2023-06-22T15:03:22;31.70;99.90
15288;DHT22;7745;48.708;9.026;2023-06-22T15:05:53;31.60;99.90
15288;DHT22;7745;48.708;9.026;2023-06-22T15:08:20;31.60;99.90
15288;DHT22;7745;48.708;9.026;2023-06-22T15:10:48;31.60;99.90
15288;DHT22;7745;48.708;9.026;2023-06-22T15:13:16;31.70;99.90
15288;DHT22;7745;48.708;9.026;2023-06-22T15:15:43;31.90;99.90
15288;DHT22;7745;48.708;9.026;2023-06-22T15:18:10;32.10;99.90
15288;DHT22;7745;48.708;9.026;2023-06-22T15:20:37;32.20;99.90
15288;DHT22;7745;48.708;9.026;2023-06-22T15:23:05;32.20;99.90
15288;DHT22;7745;48.708;9.026;2023-06-22T15:25:32;32.30;99.90
15288;DHT22;7745;48.708;9.026;2023-06-22T15:28:00;32.30;99.90
15288;DHT22;7745;48.708;9.026;2023-06-22T15:30:28;32.10;99.90
15288;DHT22;7745;48.708;9.026;2023-06-22T15:32:54;31.90;99.90
15288;DHT22;7745;48.708;9.026;2023-06-22T15:35:22;31.80;99.90
15288;DHT22;7745;48.708;9.026;2023-06-22T15:37:49;31.70;99.90
15288;DHT22;7745;48.708;9.026;2023-06-22T15:40:17;31.60;99.90
15288;DHT22;7745;48.708;9.026;2023-06-22T15:42:44;31.60;99.90
15288;DHT22;7745;48.708;9.026;2023-06-22T15:45:14;31.70;99.90
15288;DHT22;7745;48.708;9.026;2023-06-22T15:47:41;31.80;99.90